sensor_id;sensor_type;location;lat;lon;timestamp;temperature;humidity
44851;DHT22;30583;48.714;9.386;2023-05-07T00:01:33;16.60;70.20
44851;DHT22;30583;48.714;9.386;2023-05-07T00:03:59;16.60;70.40
44851;DHT22;30583;48.714;9.386;2023-05-07T00:06:24;16.80;69.60
44851;DHT22;30583;48.714;9.386;2023-05-07T00:08:51;16.60;70.20
44851;DHT22;30583;48.714;9.386;2023-05-07T00:11:16;16.60;70.30
44851;DHT22;30583;48.714;9.386;2023-05-07T00:13:42;16.60;70.30
44851;DHT22;30583;48.714;9.386;2023-05-07T00:16:07;16.50;70.60
44851;DHT22;30583;48.714;9.386;2023-05-07T00:18:33;16.40;71.00
44851;DHT22;30583;48.714;9.386;2023-05-07T00:20:59;16.40;70.90
44851;DHT22;30583;48.714;9.386;2023-05-07T00:23:24;16.40;70.90
44851;DHT22;30583;48.714;9.386;2023-05-07T00:25:50;16.40;71.00
44851;DHT22;30583;48.714;9.386;2023-05-07T00:28:15;16.40;70.90
44851;DHT22;30583;48.714;9.386;2023-05-07T00:30:41;16.30;70.90
44851;DHT22;30583;48.714;9.386;2023-05-07T00:33:06;16.50;70.60
44851;DHT22;30583;48.714;9.386;2023-05-07T00:35:32;16.30;71.20
44851;DHT22;30583;48.714;9.386;2023-05-07T00:38:00;16.20;71.50
44851;DHT22;30583;48.714;9.386;2023-05-07T00:40:26;16.20;71.80
44851;DHT22;30583;48.714;9.386;2023-05-07T00:42:51;16.20;71.50
44851;DHT22;30583;48.714;9.386;2023-05-07T00:45:21;16.30;71.40
44851;DHT22;30583;48.714;9.386;2023-05-07T00:47:48;16.40;71.10
44851;DHT22;30583;48.714;9.386;2023-05-07T00:50:14;16.20;71.50
44851;DHT22;30583;48.714;9.386;2023-05-07T00:52:39;16.40;71.20
44851;DHT22;30583;48.714;9.386;2023-05-07T00:55:07;16.50;70.70
44851;DHT22;30583;48.714;9.386;2023-05-07T00:57:36;16.30;71.40
44851;DHT22;30583;48.714;9.386;2023-05-07T01:00:04;16.40;71.40
44851;DHT22;30583;48.714;9.386;2023-05-07T01:02:29;16.30;71.40
44851;DHT22;30583;48.714;9.386;2023-05-07T01:04:56;16.20;72.00
44851;DHT22;30583;48.714;9.386;2023-05-07T01:07:22;16.30;71.90
44851;DHT22;30583;48.714;9.386;2023-05-07T01:09:48;16.20;72.50
44851;DHT22;30583;48.714;9.386;2023-05-07T01:12:15;16.10;72.50
44851;DHT22;30583;48.714;9.386;2023-05-07T01:14:41;16.20;72.70
44851;DHT22;30583;48.714;9.386;2023-05-07T01:17:07;16.30;71.80
44851;DHT22;30583;48.714;9.386;2023-05-07T01:19:33;16.30;71.80
44851;DHT22;30583;48.714;9.386;2023-05-07T01:22:08;16.20;71.70
44851;DHT22;30583;48.714;9.386;2023-05-07T01:24:35;16.20;71.80
44851;DHT22;30583;48.714;9.386;2023-05-07T01:27:01;16.20;71.80
44851;DHT22;30583;48.714;9.386;2023-05-07T01:29:28;16.30;71.60
44851;DHT22;30583;48.714;9.386;2023-05-07T01:31:55;16.40;71.40
44851;DHT22;30583;48.714;9.386;2023-05-07T01:34:22;16.40;71.10
44851;DHT22;30583;48.714;9.386;2023-05-07T01:36:50;16.40;71.20
44851;DHT22;30583;48.714;9.386;2023-05-07T01:39:16;16.50;70.90
44851;DHT22;30583;48.714;9.386;2023-05-07T01:41:43;16.10;71.90
44851;DHT22;30583;48.714;9.386;2023-05-07T01:44:10;16.00;72.30
44851;DHT22;30583;48.714;9.386;2023-05-07T01:46:37;16.10;72.10
44851;DHT22;30583;48.714;9.386;2023-05-07T01:49:03;16.20;71.80
44851;DHT22;30583;48.714;9.386;2023-05-07T01:51:29;16.10;72.00
44851;DHT22;30583;48.714;9.386;2023-05-07T01:53:55;16.00;72.60
44851;DHT22;30583;48.714;9.386;2023-05-07T01:56:21;16.10;72.40
44851;DHT22;30583;48.714;9.386;2023-05-07T01:58:46;16.00;72.50
44851;DHT22;30583;48.714;9.386;2023-05-07T02:01:13;15.90;72.70
44851;DHT22;30583;48.714;9.386;2023-05-07T02:03:39;16.00;72.40
44851;DHT22;30583;48.714;9.386;2023-05-07T02:06:05;15.80;72.80
44851;DHT22;30583;48.714;9.386;2023-05-07T02:08:30;15.90;73.00
44851;DHT22;30583;48.714;9.386;2023-05-07T02:10:56;15.70;73.00
44851;DHT22;30583;48.714;9.386;2023-05-07T02:13:22;16.20;72.10
44851;DHT22;30583;48.714;9.386;2023-05-07T02:15:48;16.20;71.70
44851;DHT22;30583;48.714;9.386;2023-05-07T02:18:16;15.80;72.50
44851;DHT22;30583;48.714;9.386;2023-05-07T02:20:42;15.70;72.90
44851;DHT22;30583;48.714;9.386;2023-05-07T02:23:08;15.90;72.70
44851;DHT22;30583;48.714;9.386;2023-05-07T02:25:34;15.80;73.00
44851;DHT22;30583;48.714;9.386;2023-05-07T02:27:59;15.70;73.30
44851;DHT22;30583;48.714;9.386;2023-05-07T02:30:25;15.90;73.10
44851;DHT22;30583;48.714;9.386;2023-05-07T02:32:51;15.80;73.00
44851;DHT22;30583;48.714;9.386;2023-05-07T02:35:17;15.70;72.90
44851;DHT22;30583;48.714;9.386;2023-05-07T02:37:42;15.70;73.20
44851;DHT22;30583;48.714;9.386;2023-05-07T02:40:08;15.70;73.00
44851;DHT22;30583;48.714;9.386;2023-05-07T02:42:34;15.60;73.40
44851;DHT22;30583;48.714;9.386;2023-05-07T02:45:00;15.60;73.50
44851;DHT22;30583;48.714;9.386;2023-05-07T02:47:26;15.90;72.50
44851;DHT22;30583;48.714;9.386;2023-05-07T02:49:55;15.80;72.30
44851;DHT22;30583;48.714;9.386;2023-05-07T02:52:21;15.30;73.40
44851;DHT22;30583;48.714;9.386;2023-05-07T02:54:46;15.60;73.30
44851;DHT22;30583;48.714;9.386;2023-05-07T02:57:12;15.60;73.00
44851;DHT22;30583;48.714;9.386;2023-05-07T02:59:37;15.60;72.70
44851;DHT22;30583;48.714;9.386;2023-05-07T03:02:03;15.70;72.50
44851;DHT22;30583;48.714;9.386;2023-05-07T03:04:28;15.40;73.20
44851;DHT22;30583;48.714;9.386;2023-05-07T03:06:54;15.40;73.20
44851;DHT22;30583;48.714;9.386;2023-05-07T03:09:20;15.50;72.90
44851;DHT22;30583;48.714;9.386;2023-05-07T03:11:45;15.40;73.00
44851;DHT22;30583;48.714;9.386;2023-05-07T03:14:11;15.60;72.60
44851;DHT22;30583;48.714;9.386;2023-05-07T03:16:37;15.90;71.50
44851;DHT22;30583;48.714;9.386;2023-05-07T03:19:03;15.60;71.80
44851;DHT22;30583;48.714;9.386;2023-05-07T03:21:28;15.50;72.60
44851;DHT22;30583;48.714;9.386;2023-05-07T03:23:54;15.50;72.50
44851;DHT22;30583;48.714;9.386;2023-05-07T03:26:19;15.40;73.10
44851;DHT22;30583;48.714;9.386;2023-05-07T03:28:45;15.50;72.30
44851;DHT22;30583;48.714;9.386;2023-05-07T03:31:11;15.50;72.70
44851;DHT22;30583;48.714;9.386;2023-05-07T03:33:48;15.20;72.40
44851;DHT22;30583;48.714;9.386;2023-05-07T03:36:14;14.70;74.20
44851;DHT22;30583;48.714;9.386;2023-05-07T03:38:39;14.60;74.90
44851;DHT22;30583;48.714;9.386;2023-05-07T03:41:05;14.70;74.30
44851;DHT22;30583;48.714;9.386;2023-05-07T03:43:30;14.80;74.10
44851;DHT22;30583;48.714;9.386;2023-05-07T03:45:56;14.70;74.50
44851;DHT22;30583;48.714;9.386;2023-05-07T03:48:21;14.60;74.80
44851;DHT22;30583;48.714;9.386;2023-05-07T03:50:47;15.20;73.10
44851;DHT22;30583;48.714;9.386;2023-05-07T03:53:13;15.20;72.40
44851;DHT22;30583;48.714;9.386;2023-05-07T03:55:38;15.10;73.20
44851;DHT22;30583;48.714;9.386;2023-05-07T03:58:04;15.40;72.10
44851;DHT22;30583;48.714;9.386;2023-05-07T04:00:29;15.10;72.70
44851;DHT22;30583;48.714;9.386;2023-05-07T04:02:58;15.10;73.00
44851;DHT22;30583;48.714;9.386;2023-05-07T04:05:24;14.80;73.80
44851;DHT22;30583;48.714;9.386;2023-05-07T04:07:50;14.80;74.20
44851;DHT22;30583;48.714;9.386;2023-05-07T04:10:15;14.80;74.00
44851;DHT22;30583;48.714;9.386;2023-05-07T04:12:41;14.70;74.50
44851;DHT22;30583;48.714;9.386;2023-05-07T04:15:07;14.80;74.00
44851;DHT22;30583;48.714;9.386;2023-05-07T04:17:33;15.00;72.90
44851;DHT22;30583;48.714;9.386;2023-05-07T04:19:58;14.90;73.10
44851;DHT22;30583;48.714;9.386;2023-05-07T04:22:24;14.70;73.90
44851;DHT22;30583;48.714;9.386;2023-05-07T04:24:49;14.90;74.00
44851;DHT22;30583;48.714;9.386;2023-05-07T04:27:15;14.80;74.40
44851;DHT22;30583;48.714;9.386;2023-05-07T04:29:41;14.70;74.40
44851;DHT22;30583;48.714;9.386;2023-05-07T04:32:09;14.70;74.60
44851;DHT22;30583;48.714;9.386;2023-05-07T04:34:34;15.00;74.10
44851;DHT22;30583;48.714;9.386;2023-05-07T04:37:00;14.90;74.20
44851;DHT22;30583;48.714;9.386;2023-05-07T04:39:25;14.90;74.00
44851;DHT22;30583;48.714;9.386;2023-05-07T04:41:51;14.70;74.20
44851;DHT22;30583;48.714;9.386;2023-05-07T04:44:16;14.80;74.50
44851;DHT22;30583;48.714;9.386;2023-05-07T04:46:42;14.70;74.30
44851;DHT22;30583;48.714;9.386;2023-05-07T04:49:08;14.70;74.10
44851;DHT22;30583;48.714;9.386;2023-05-07T04:51:33;14.80;74.40
44851;DHT22;30583;48.714;9.386;2023-05-07T04:53:59;15.00;73.40
44851;DHT22;30583;48.714;9.386;2023-05-07T04:56:27;14.90;73.80
44851;DHT22;30583;48.714;9.386;2023-05-07T04:58:54;14.90;73.90
44851;DHT22;30583;48.714;9.386;2023-05-07T05:01:19;15.10;73.30
44851;DHT22;30583;48.714;9.386;2023-05-07T05:03:45;15.30;72.90
44851;DHT22;30583;48.714;9.386;2023-05-07T05:06:10;15.10;73.00
44851;DHT22;30583;48.714;9.386;2023-05-07T05:08:36;15.00;73.50
44851;DHT22;30583;48.714;9.386;2023-05-07T05:11:02;15.10;73.30
44851;DHT22;30583;48.714;9.386;2023-05-07T05:13:28;14.90;73.90
44851;DHT22;30583;48.714;9.386;2023-05-07T05:15:53;14.80;73.90
44851;DHT22;30583;48.714;9.386;2023-05-07T05:18:19;15.00;73.50
44851;DHT22;30583;48.714;9.386;2023-05-07T05:20:45;14.40;74.50
44851;DHT22;30583;48.714;9.386;2023-05-07T05:23:11;14.70;74.60
44851;DHT22;30583;48.714;9.386;2023-05-07T05:25:36;15.20;72.60
44851;DHT22;30583;48.714;9.386;2023-05-07T05:28:02;15.10;73.10
44851;DHT22;30583;48.714;9.386;2023-05-07T05:30:28;14.90;73.90
44851;DHT22;30583;48.714;9.386;2023-05-07T05:32:54;15.10;73.60
44851;DHT22;30583;48.714;9.386;2023-05-07T05:35:19;15.10;73.30
44851;DHT22;30583;48.714;9.386;2023-05-07T05:37:45;15.20;73.20
44851;DHT22;30583;48.714;9.386;2023-05-07T05:40:11;15.20;73.10
44851;DHT22;30583;48.714;9.386;2023-05-07T05:42:38;15.30;72.40
44851;DHT22;30583;48.714;9.386;2023-05-07T05:45:04;14.80;73.90
44851;DHT22;30583;48.714;9.386;2023-05-07T05:47:29;14.90;73.70
44851;DHT22;30583;48.714;9.386;2023-05-07T05:49:55;14.90;74.00
44851;DHT22;30583;48.714;9.386;2023-05-07T05:52:21;15.00;73.60
44851;DHT22;30583;48.714;9.386;2023-05-07T05:54:49;15.50;72.00
44851;DHT22;30583;48.714;9.386;2023-05-07T05:57:14;15.70;71.60
44851;DHT22;30583;48.714;9.386;2023-05-07T05:59:40;15.90;71.90
44851;DHT22;30583;48.714;9.386;2023-05-07T06:02:06;16.00;71.40
44851;DHT22;30583;48.714;9.386;2023-05-07T06:04:32;16.20;71.20
44851;DHT22;30583;48.714;9.386;2023-05-07T06:06:57;16.30;70.80
44851;DHT22;30583;48.714;9.386;2023-05-07T06:09:23;16.10;71.00
44851;DHT22;30583;48.714;9.386;2023-05-07T06:11:48;16.10;70.80
44851;DHT22;30583;48.714;9.386;2023-05-07T06:14:15;16.40;69.70
44851;DHT22;30583;48.714;9.386;2023-05-07T06:16:40;16.30;69.40
44851;DHT22;30583;48.714;9.386;2023-05-07T06:19:07;16.20;70.20
44851;DHT22;30583;48.714;9.386;2023-05-07T06:21:32;16.40;70.00
44851;DHT22;30583;48.714;9.386;2023-05-07T06:23:58;16.30;70.50
44851;DHT22;30583;48.714;9.386;2023-05-07T06:26:23;16.20;71.00
44851;DHT22;30583;48.714;9.386;2023-05-07T06:28:49;16.20;71.50
44851;DHT22;30583;48.714;9.386;2023-05-07T06:31:16;16.50;71.00
44851;DHT22;30583;48.714;9.386;2023-05-07T06:33:43;16.40;70.60
44851;DHT22;30583;48.714;9.386;2023-05-07T06:36:09;16.60;70.30
44851;DHT22;30583;48.714;9.386;2023-05-07T06:38:35;16.70;70.00
44851;DHT22;30583;48.714;9.386;2023-05-07T06:41:00;16.70;69.80
44851;DHT22;30583;48.714;9.386;2023-05-07T06:43:26;17.00;68.90
44851;DHT22;30583;48.714;9.386;2023-05-07T06:45:51;16.80;68.80
44851;DHT22;30583;48.714;9.386;2023-05-07T06:48:17;16.90;68.60
44851;DHT22;30583;48.714;9.386;2023-05-07T06:50:42;16.80;68.80
44851;DHT22;30583;48.714;9.386;2023-05-07T06:53:08;16.80;68.80
44851;DHT22;30583;48.714;9.386;2023-05-07T06:55:33;17.00;68.70
44851;DHT22;30583;48.714;9.386;2023-05-07T06:57:59;17.20;68.00
44851;DHT22;30583;48.714;9.386;2023-05-07T07:00:27;17.20;68.30
44851;DHT22;30583;48.714;9.386;2023-05-07T07:02:53;17.30;68.40
44851;DHT22;30583;48.714;9.386;2023-05-07T07:05:19;17.10;68.60
44851;DHT22;30583;48.714;9.386;2023-05-07T07:07:44;17.10;68.60
44851;DHT22;30583;48.714;9.386;2023-05-07T07:10:10;17.20;68.40
44851;DHT22;30583;48.714;9.386;2023-05-07T07:12:35;17.20;68.80
44851;DHT22;30583;48.714;9.386;2023-05-07T07:15:01;17.30;68.40
44851;DHT22;30583;48.714;9.386;2023-05-07T07:17:27;17.60;67.70
44851;DHT22;30583;48.714;9.386;2023-05-07T07:19:53;17.70;67.80
44851;DHT22;30583;48.714;9.386;2023-05-07T07:22:19;17.70;67.60
44851;DHT22;30583;48.714;9.386;2023-05-07T07:24:45;17.90;67.40
44851;DHT22;30583;48.714;9.386;2023-05-07T07:27:10;18.00;67.00
44851;DHT22;30583;48.714;9.386;2023-05-07T07:29:36;18.10;66.20
44851;DHT22;30583;48.714;9.386;2023-05-07T07:32:01;18.10;65.80
44851;DHT22;30583;48.714;9.386;2023-05-07T07:34:27;18.20;65.80
44851;DHT22;30583;48.714;9.386;2023-05-07T07:36:52;18.30;64.60
44851;DHT22;30583;48.714;9.386;2023-05-07T07:39:18;18.60;64.20
44851;DHT22;30583;48.714;9.386;2023-05-07T07:41:43;18.80;64.30
44851;DHT22;30583;48.714;9.386;2023-05-07T07:44:09;19.00;63.10
44851;DHT22;30583;48.714;9.386;2023-05-07T07:46:38;19.10;62.70
44851;DHT22;30583;48.714;9.386;2023-05-07T07:49:03;19.30;62.00
44851;DHT22;30583;48.714;9.386;2023-05-07T07:51:29;19.20;61.30
44851;DHT22;30583;48.714;9.386;2023-05-07T07:53:55;19.30;62.30
44851;DHT22;30583;48.714;9.386;2023-05-07T07:56:23;19.50;61.70
44851;DHT22;30583;48.714;9.386;2023-05-07T07:58:48;19.70;61.70
44851;DHT22;30583;48.714;9.386;2023-05-07T08:01:14;19.70;61.10
44851;DHT22;30583;48.714;9.386;2023-05-07T08:03:40;19.70;60.80
44851;DHT22;30583;48.714;9.386;2023-05-07T08:06:05;19.70;61.20
44851;DHT22;30583;48.714;9.386;2023-05-07T08:08:31;19.80;61.70
44851;DHT22;30583;48.714;9.386;2023-05-07T08:10:57;19.80;61.30
44851;DHT22;30583;48.714;9.386;2023-05-07T08:13:22;19.80;61.80
44851;DHT22;30583;48.714;9.386;2023-05-07T08:15:48;20.00;61.30
44851;DHT22;30583;48.714;9.386;2023-05-07T08:18:13;20.00;60.70
44851;DHT22;30583;48.714;9.386;2023-05-07T08:20:39;20.00;61.50
44851;DHT22;30583;48.714;9.386;2023-05-07T08:23:05;20.30;60.80
44851;DHT22;30583;48.714;9.386;2023-05-07T08:25:33;20.50;61.20
44851;DHT22;30583;48.714;9.386;2023-05-07T08:27:59;20.40;60.00
44851;DHT22;30583;48.714;9.386;2023-05-07T08:30:25;20.40;59.30
44851;DHT22;30583;48.714;9.386;2023-05-07T08:32:51;20.60;59.40
44851;DHT22;30583;48.714;9.386;2023-05-07T08:35:16;20.80;59.90
44851;DHT22;30583;48.714;9.386;2023-05-07T08:37:42;20.90;58.50
44851;DHT22;30583;48.714;9.386;2023-05-07T08:40:08;20.80;59.60
44851;DHT22;30583;48.714;9.386;2023-05-07T08:42:36;21.20;59.50
44851;DHT22;30583;48.714;9.386;2023-05-07T08:45:04;21.20;58.90
44851;DHT22;30583;48.714;9.386;2023-05-07T08:47:38;21.40;60.00
44851;DHT22;30583;48.714;9.386;2023-05-07T08:50:05;21.60;59.40
44851;DHT22;30583;48.714;9.386;2023-05-07T08:52:31;21.60;58.80
44851;DHT22;30583;48.714;9.386;2023-05-07T08:54:57;21.50;58.80
44851;DHT22;30583;48.714;9.386;2023-05-07T08:57:24;21.70;59.60
44851;DHT22;30583;48.714;9.386;2023-05-07T08:59:50;21.70;58.60
44851;DHT22;30583;48.714;9.386;2023-05-07T09:02:15;21.70;59.00
44851;DHT22;30583;48.714;9.386;2023-05-07T09:04:42;21.80;58.90
44851;DHT22;30583;48.714;9.386;2023-05-07T09:07:07;21.70;58.90
44851;DHT22;30583;48.714;9.386;2023-05-07T09:09:33;21.80;58.50
44851;DHT22;30583;48.714;9.386;2023-05-07T09:11:59;22.00;58.30
44851;DHT22;30583;48.714;9.386;2023-05-07T09:14:26;22.20;57.80
44851;DHT22;30583;48.714;9.386;2023-05-07T09:16:54;21.70;56.20
44851;DHT22;30583;48.714;9.386;2023-05-07T09:19:24;22.10;56.50
44851;DHT22;30583;48.714;9.386;2023-05-07T09:21:50;22.40;55.40
44851;DHT22;30583;48.714;9.386;2023-05-07T09:24:16;22.30;54.40
44851;DHT22;30583;48.714;9.386;2023-05-07T09:26:42;22.50;53.80
44851;DHT22;30583;48.714;9.386;2023-05-07T09:29:08;22.50;55.10
44851;DHT22;30583;48.714;9.386;2023-05-07T09:31:38;22.60;55.30
44851;DHT22;30583;48.714;9.386;2023-05-07T09:34:05;22.70;54.70
44851;DHT22;30583;48.714;9.386;2023-05-07T09:36:31;22.70;55.00
44851;DHT22;30583;48.714;9.386;2023-05-07T09:39:00;23.00;54.70
44851;DHT22;30583;48.714;9.386;2023-05-07T09:41:26;23.00;53.60
44851;DHT22;30583;48.714;9.386;2023-05-07T09:43:55;22.70;52.90
44851;DHT22;30583;48.714;9.386;2023-05-07T09:46:25;22.70;54.50
44851;DHT22;30583;48.714;9.386;2023-05-07T09:48:53;23.00;53.70
44851;DHT22;30583;48.714;9.386;2023-05-07T09:51:25;22.70;54.00
44851;DHT22;30583;48.714;9.386;2023-05-07T09:53:54;22.90;55.30
44851;DHT22;30583;48.714;9.386;2023-05-07T09:56:21;23.00;54.40
44851;DHT22;30583;48.714;9.386;2023-05-07T09:58:48;23.20;53.60
44851;DHT22;30583;48.714;9.386;2023-05-07T10:01:17;23.20;54.30
44851;DHT22;30583;48.714;9.386;2023-05-07T10:03:45;23.40;53.90
44851;DHT22;30583;48.714;9.386;2023-05-07T10:06:12;23.30;53.10
44851;DHT22;30583;48.714;9.386;2023-05-07T10:08:38;23.30;52.80
44851;DHT22;30583;48.714;9.386;2023-05-07T10:11:05;23.20;51.50
44851;DHT22;30583;48.714;9.386;2023-05-07T10:13:32;23.50;51.00
44851;DHT22;30583;48.714;9.386;2023-05-07T10:15:59;23.70;50.60
44851;DHT22;30583;48.714;9.386;2023-05-07T10:18:25;23.60;50.50
44851;DHT22;30583;48.714;9.386;2023-05-07T10:21:04;23.80;51.30
44851;DHT22;30583;48.714;9.386;2023-05-07T10:23:31;23.70;50.10
44851;DHT22;30583;48.714;9.386;2023-05-07T10:25:59;23.80;50.60
44851;DHT22;30583;48.714;9.386;2023-05-07T10:28:26;23.70;50.90
44851;DHT22;30583;48.714;9.386;2023-05-07T10:33:53;24.20;50.70
44851;DHT22;30583;48.714;9.386;2023-05-07T10:36:20;24.20;52.10
44851;DHT22;30583;48.714;9.386;2023-05-07T10:38:46;24.50;48.90
44851;DHT22;30583;48.714;9.386;2023-05-07T10:41:11;24.40;48.70
44851;DHT22;30583;48.714;9.386;2023-05-07T10:43:44;24.60;50.00
44851;DHT22;30583;48.714;9.386;2023-05-07T10:46:23;24.70;49.60
44851;DHT22;30583;48.714;9.386;2023-05-07T10:51:27;24.40;49.60
44851;DHT22;30583;48.714;9.386;2023-05-07T10:56:40;24.00;49.10
44851;DHT22;30583;48.714;9.386;2023-05-07T11:02:05;24.00;46.20
44851;DHT22;30583;48.714;9.386;2023-05-07T11:04:32;24.40;47.60
44851;DHT22;30583;48.714;9.386;2023-05-07T11:12:16;24.80;48.00
44851;DHT22;30583;48.714;9.386;2023-05-07T11:17:08;25.00;46.90
44851;DHT22;30583;48.714;9.386;2023-05-07T11:19:51;25.10;48.00
44851;DHT22;30583;48.714;9.386;2023-05-07T11:25:02;25.50;46.50
44851;DHT22;30583;48.714;9.386;2023-05-07T11:27:28;25.20;44.80
44851;DHT22;30583;48.714;9.386;2023-05-07T11:29:55;25.50;44.70
44851;DHT22;30583;48.714;9.386;2023-05-07T11:32:30;25.40;43.80
44851;DHT22;30583;48.714;9.386;2023-05-07T11:34:57;25.20;44.90
44851;DHT22;30583;48.714;9.386;2023-05-07T11:37:24;25.50;44.70
44851;DHT22;30583;48.714;9.386;2023-05-07T11:39:50;25.50;42.60
44851;DHT22;30583;48.714;9.386;2023-05-07T11:42:28;25.40;43.90
44851;DHT22;30583;48.714;9.386;2023-05-07T11:44:54;25.70;44.50
44851;DHT22;30583;48.714;9.386;2023-05-07T11:47:20;25.40;47.20
44851;DHT22;30583;48.714;9.386;2023-05-07T11:49:48;25.60;44.20
44851;DHT22;30583;48.714;9.386;2023-05-07T11:52:14;25.70;44.00
44851;DHT22;30583;48.714;9.386;2023-05-07T11:54:39;25.70;44.70
44851;DHT22;30583;48.714;9.386;2023-05-07T11:57:05;25.60;44.10
44851;DHT22;30583;48.714;9.386;2023-05-07T11:59:41;25.10;44.60
44851;DHT22;30583;48.714;9.386;2023-05-07T12:02:09;25.00;45.30
44851;DHT22;30583;48.714;9.386;2023-05-07T12:04:35;24.70;44.80
44851;DHT22;30583;48.714;9.386;2023-05-07T12:07:01;24.40;45.00
44851;DHT22;30583;48.714;9.386;2023-05-07T12:09:26;24.50;46.60
44851;DHT22;30583;48.714;9.386;2023-05-07T12:11:52;24.50;45.10
44851;DHT22;30583;48.714;9.386;2023-05-07T12:14:18;24.50;44.60
44851;DHT22;30583;48.714;9.386;2023-05-07T12:16:44;24.40;45.20
44851;DHT22;30583;48.714;9.386;2023-05-07T12:19:11;24.50;45.30
44851;DHT22;30583;48.714;9.386;2023-05-07T12:21:40;24.60;46.90
44851;DHT22;30583;48.714;9.386;2023-05-07T12:24:06;24.60;46.20
44851;DHT22;30583;48.714;9.386;2023-05-07T12:26:31;24.60;44.80
44851;DHT22;30583;48.714;9.386;2023-05-07T12:28:57;24.10;45.30
44851;DHT22;30583;48.714;9.386;2023-05-07T12:31:25;24.10;45.50
44851;DHT22;30583;48.714;9.386;2023-05-07T12:33:51;23.90;45.70
44851;DHT22;30583;48.714;9.386;2023-05-07T12:36:17;23.80;46.00
44851;DHT22;30583;48.714;9.386;2023-05-07T12:38:42;23.70;46.80
44851;DHT22;30583;48.714;9.386;2023-05-07T12:41:09;23.40;47.30
44851;DHT22;30583;48.714;9.386;2023-05-07T12:43:35;23.00;48.80
44851;DHT22;30583;48.714;9.386;2023-05-07T12:46:04;22.90;49.20
44851;DHT22;30583;48.714;9.386;2023-05-07T12:48:30;22.70;48.90
44851;DHT22;30583;48.714;9.386;2023-05-07T12:51:00;22.70;49.40
44851;DHT22;30583;48.714;9.386;2023-05-07T12:53:27;22.50;48.50
44851;DHT22;30583;48.714;9.386;2023-05-07T12:55:55;22.40;48.40
44851;DHT22;30583;48.714;9.386;2023-05-07T12:58:28;22.10;49.50
44851;DHT22;30583;48.714;9.386;2023-05-07T13:00:55;22.10;50.50
44851;DHT22;30583;48.714;9.386;2023-05-07T13:03:29;22.00;51.30
44851;DHT22;30583;48.714;9.386;2023-05-07T13:05:57;21.70;53.50
44851;DHT22;30583;48.714;9.386;2023-05-07T13:08:31;21.70;54.60
44851;DHT22;30583;48.714;9.386;2023-05-07T13:10:58;21.70;56.80
44851;DHT22;30583;48.714;9.386;2023-05-07T13:13:25;21.70;56.20
44851;DHT22;30583;48.714;9.386;2023-05-07T13:15:51;21.60;56.10
44851;DHT22;30583;48.714;9.386;2023-05-07T13:18:17;21.70;55.20
44851;DHT22;30583;48.714;9.386;2023-05-07T13:20:42;21.60;56.40
44851;DHT22;30583;48.714;9.386;2023-05-07T13:23:08;21.20;59.50
44851;DHT22;30583;48.714;9.386;2023-05-07T13:25:34;20.90;62.70
44851;DHT22;30583;48.714;9.386;2023-05-07T13:27:59;20.90;63.90
44851;DHT22;30583;48.714;9.386;2023-05-07T13:30:25;20.80;65.10
44851;DHT22;30583;48.714;9.386;2023-05-07T13:32:54;20.70;65.70
44851;DHT22;30583;48.714;9.386;2023-05-07T13:35:20;20.60;67.10
44851;DHT22;30583;48.714;9.386;2023-05-07T13:37:46;20.40;67.70
44851;DHT22;30583;48.714;9.386;2023-05-07T13:40:13;20.40;67.30
44851;DHT22;30583;48.714;9.386;2023-05-07T13:42:39;20.30;68.00
44851;DHT22;30583;48.714;9.386;2023-05-07T13:45:05;20.20;68.40
44851;DHT22;30583;48.714;9.386;2023-05-07T13:47:31;20.30;68.00
44851;DHT22;30583;48.714;9.386;2023-05-07T13:49:56;20.40;66.80
44851;DHT22;30583;48.714;9.386;2023-05-07T13:52:22;20.00;68.20
44851;DHT22;30583;48.714;9.386;2023-05-07T13:54:47;19.90;68.30
44851;DHT22;30583;48.714;9.386;2023-05-07T13:57:13;19.50;67.40
44851;DHT22;30583;48.714;9.386;2023-05-07T13:59:39;19.30;66.40
44851;DHT22;30583;48.714;9.386;2023-05-07T14:02:05;19.40;65.80
44851;DHT22;30583;48.714;9.386;2023-05-07T14:04:31;19.70;67.10
44851;DHT22;30583;48.714;9.386;2023-05-07T14:06:56;19.70;67.60
44851;DHT22;30583;48.714;9.386;2023-05-07T14:09:22;19.50;67.00
44851;DHT22;30583;48.714;9.386;2023-05-07T14:11:48;18.80;69.80
44851;DHT22;30583;48.714;9.386;2023-05-07T14:14:17;18.80;70.80
44851;DHT22;30583;48.714;9.386;2023-05-07T14:16:42;18.80;69.10
44851;DHT22;30583;48.714;9.386;2023-05-07T14:19:08;18.90;69.70
44851;DHT22;30583;48.714;9.386;2023-05-07T14:21:33;18.70;70.00
44851;DHT22;30583;48.714;9.386;2023-05-07T14:23:59;18.90;70.20
44851;DHT22;30583;48.714;9.386;2023-05-07T14:26:25;18.90;71.10
44851;DHT22;30583;48.714;9.386;2023-05-07T14:28:52;18.90;70.10
44851;DHT22;30583;48.714;9.386;2023-05-07T14:31:20;18.90;69.20
44851;DHT22;30583;48.714;9.386;2023-05-07T14:33:46;19.00;68.80
44851;DHT22;30583;48.714;9.386;2023-05-07T14:36:11;19.10;70.10
44851;DHT22;30583;48.714;9.386;2023-05-07T14:38:37;18.90;70.50
44851;DHT22;30583;48.714;9.386;2023-05-07T14:41:02;18.70;70.40
44851;DHT22;30583;48.714;9.386;2023-05-07T14:43:28;18.90;71.00
44851;DHT22;30583;48.714;9.386;2023-05-07T14:45:54;18.70;70.80
44851;DHT22;30583;48.714;9.386;2023-05-07T14:48:19;18.70;72.20
44851;DHT22;30583;48.714;9.386;2023-05-07T14:50:47;18.80;71.60
44851;DHT22;30583;48.714;9.386;2023-05-07T14:53:13;18.90;72.60
44851;DHT22;30583;48.714;9.386;2023-05-07T14:55:39;19.00;72.60
44851;DHT22;30583;48.714;9.386;2023-05-07T14:58:04;18.80;73.40
44851;DHT22;30583;48.714;9.386;2023-05-07T15:00:30;18.70;74.80
44851;DHT22;30583;48.714;9.386;2023-05-07T15:03:05;18.70;75.60
44851;DHT22;30583;48.714;9.386;2023-05-07T15:05:31;18.80;74.40
44851;DHT22;30583;48.714;9.386;2023-05-07T15:07:57;18.60;74.80
44851;DHT22;30583;48.714;9.386;2023-05-07T15:10:23;18.70;74.90
44851;DHT22;30583;48.714;9.386;2023-05-07T15:12:48;19.20;73.30
44851;DHT22;30583;48.714;9.386;2023-05-07T15:15:14;21.20;64.50
44851;DHT22;30583;48.714;9.386;2023-05-07T15:17:40;21.60;62.90
44851;DHT22;30583;48.714;9.386;2023-05-07T15:20:06;21.50;63.40
44851;DHT22;30583;48.714;9.386;2023-05-07T15:22:32;19.60;70.00
44851;DHT22;30583;48.714;9.386;2023-05-07T15:24:58;18.90;73.10
44851;DHT22;30583;48.714;9.386;2023-05-07T15:27:24;18.30;75.40
44851;DHT22;30583;48.714;9.386;2023-05-07T15:29:50;18.00;76.30
44851;DHT22;30583;48.714;9.386;2023-05-07T15:32:16;18.10;76.40
44851;DHT22;30583;48.714;9.386;2023-05-07T15:34:41;17.90;77.10
44851;DHT22;30583;48.714;9.386;2023-05-07T15:37:07;18.10;77.00
44851;DHT22;30583;48.714;9.386;2023-05-07T15:39:32;17.80;78.10
44851;DHT22;30583;48.714;9.386;2023-05-07T15:41:58;18.10;77.60
44851;DHT22;30583;48.714;9.386;2023-05-07T15:44:23;18.20;77.80
44851;DHT22;30583;48.714;9.386;2023-05-07T15:46:53;18.00;78.30